Terminal Aerodrome Forecast
Issued by NWS Tulsa, OK

Home | Current Version | Previous Version | Text Only | Print | Product List | Glossary On
Versions: 1 2 3 4 5 6 7 8 9 10 11 12 13 14 15
632
FTUS44 KTSA 190106 AAA
TAFFSM
TAF AMD
KFSM 190106Z 1901/1924 08006KT 5SM BR OVC009
     FM190400 07004KT 3SM BR OVC005
      TEMPO 1910/1914 1/4SM FG OVC001
     FM191600 14005KT 5SM BR OVC012
     FM192000 15007KT P6SM BKN015=

USA.gov is the U.S. government's official web portal to all federal, state and local government web resources and services.